Time;durP1;ratioP1;P1;durP2;ratioP2;P2;SDS_P1;SDS_P2;PMS_P1;PMS_P2;Temp;Humidity;BMP_temperature;BMP_pressure;BME280_temperature;BME280_humidity;BME280_pressure;Samples;Min_cycle;Max_cycle;Signal;HPM_P1;HPM_P2
2023/09/12 00:01:41;;;;;;;4.27;3.97;;;27.60;64.40;;;;;;5093173;28;20468;-50
2023/09/12 00:04:29;;;;;;;4.80;4.40;;;27.60;65.80;;;;;;5094069;28;20444;-50
2023/09/12 00:07:16;;;;;;;4.80;4.30;;;27.60;64.30;;;;;;5100234;28;20436;-51
2023/09/12 00:10:05;;;;;;;5.63;4.37;;;27.60;64.30;;;;;;5095178;28;20849;-49
2023/09/12 00:12:52;;;;;;;4.40;4.10;;;27.60;64.30;;;;;;5093352;28;20469;-51
2023/09/12 00:15:39;;;;;;;4.87;4.47;;;27.60;64.30;;;;;;5104781;27;20470;-50
2023/09/12 00:18:26;;;;;;;5.40;4.70;;;27.60;64.30;;;;;;5094719;28;20463;-50
2023/09/12 00:21:13;;;;;;;5.20;4.50;;;27.60;64.20;;;;;;5100460;27;20561;-50
2023/09/12 00:24:00;;;;;;;5.60;4.47;;;27.60;64.20;;;;;;5095995;28;20444;-50
2023/09/12 00:26:49;;;;;;;4.03;3.73;;;27.60;64.20;;;;;;5095080;28;20448;-50
2023/09/12 00:29:36;;;;;;;4.63;4.30;;;27.60;64.10;;;;;;5094662;28;20538;-50
2023/09/12 00:32:23;;;;;;;4.50;4.13;;;27.60;64.10;;;;;;5098838;28;20920;-50
2023/09/12 00:35:11;;;;;;;4.70;4.40;;;27.60;64.10;;;;;;5095030;28;20484;-51
2023/09/12 00:37:58;;;;;;;5.23;4.30;;;27.60;64.10;;;;;;5092962;28;20591;-50
2023/09/12 00:40:45;;;;;;;4.60;4.20;;;27.60;64.20;;;;;;5108402;27;20472;-51
2023/09/12 00:43:33;;;;;;;4.70;4.30;;;27.60;64.20;;;;;;5087331;28;20448;-51
2023/09/12 00:46:21;;;;;;;4.40;4.10;;;27.60;63.90;;;;;;5092275;28;20834;-50
2023/09/12 00:49:09;;;;;;;4.13;3.73;;;27.60;63.70;;;;;;5086252;28;20535;-50
2023/09/12 00:51:57;;;;;;;4.27;3.97;;;27.60;64.20;;;;;;5092178;28;20522;-50
2023/09/12 00:54:44;;;;;;;4.03;3.70;;;27.60;64.30;;;;;;5088873;28;20464;-49
2023/09/12 00:57:33;;;;;;;4.03;3.73;;;27.50;64.20;;;;;;5089318;28;20444;-51
2023/09/12 01:00:22;;;;;;;4.33;4.03;;;27.50;64.20;;;;;;5096746;28;20562;-50
2023/09/12 01:03:10;;;;;;;4.87;4.47;;;27.60;64.20;;;;;;5097307;28;20577;-51
2023/09/12 01:06:00;;;;;;;3.73;3.43;;;27.60;64.20;;;;;;5079474;28;20460;-49
2023/09/12 01:08:47;;;;;;;4.50;4.20;;;27.60;64.30;;;;;;5099816;28;20456;-49
2023/09/12 01:11:35;;;;;;;4.93;4.43;;;27.60;64.30;;;;;;5085207;28;20477;-49
2023/09/12 01:14:22;;;;;;;5.27;4.37;;;27.60;64.30;;;;;;5097441;28;20525;-51
2023/09/12 01:17:10;;;;;;;4.20;3.90;;;27.50;64.20;;;;;;5101636;28;20429;-49
2023/09/12 01:19:58;;;;;;;3.93;3.47;;;27.50;64.20;;;;;;5103622;28;20602;-50
2023/09/12 01:23:01;;;;;;;6.17;4.37;;;27.50;64.50;;;;;;5100019;28;20947;-50
2023/09/12 01:26:09;;;;;;;4.87;4.47;;;27.50;63.90;;;;;;5087434;28;20831;-49
2023/09/12 01:28:59;;;;;;;4.50;4.10;;;27.50;64.20;;;;;;5101570;28;20467;-50
2023/09/12 01:31:48;;;;;;;4.00;3.70;;;27.50;63.90;;;;;;5109305;27;20488;-50
2023/09/12 01:34:35;;;;;;;3.60;3.30;;;27.50;64.10;;;;;;5094441;28;20456;-51
2023/09/12 01:37:23;;;;;;;3.93;3.63;;;27.50;64.20;;;;;;5090630;28;20424;-49
2023/09/12 01:40:11;;;;;;;3.60;3.30;;;27.50;64.50;;;;;;5100562;28;20549;-50
2023/09/12 01:43:01;;;;;;;4.47;4.07;;;27.50;64.40;;;;;;5101094;28;20458;-50
2023/09/12 01:45:53;;;;;;;4.07;3.70;;;27.50;64.30;;;;;;5095134;27;20849;-51
2023/09/12 01:48:41;;;;;;;3.90;3.60;;;27.50;64.20;;;;;;5095217;28;20516;-50
2023/09/12 01:51:29;;;;;;;3.77;3.47;;;27.40;64.20;;;;;;5098623;28;20475;-51
2023/09/12 01:54:17;;;;;;;4.20;3.90;;;27.40;64.20;;;;;;5095774;28;20539;-50
2023/09/12 01:57:05;;;;;;;3.63;3.33;;;27.40;64.20;;;;;;5095361;28;20452;-51
2023/09/12 01:59:52;;;;;;;4.17;3.83;;;27.40;64.00;;;;;;5103882;28;20468;-50
2023/09/12 02:02:41;;;;;;;4.60;4.23;;;27.50;64.00;;;;;;5098093;28;20530;-49
2023/09/12 02:05:29;;;;;;;4.67;4.27;;;27.50;63.90;;;;;;5095015;27;20838;-50
2023/09/12 02:08:16;;;;;;;5.20;4.73;;;27.40;63.70;;;;;;5091385;28;20801;-50
2023/09/12 02:11:04;;;;;;;6.03;4.87;;;27.40;63.80;;;;;;5100646;28;21025;-52
2023/09/12 02:13:51;;;;;;;4.60;4.27;;;27.40;63.80;;;;;;5107161;28;20529;-51
2023/09/12 02:16:41;;;;;;;5.83;4.47;;;27.40;63.60;;;;;;5093633;28;20467;-49
2023/09/12 02:19:32;;;;;;;3.83;3.53;;;27.40;63.60;;;;;;5091922;28;20602;-50
2023/09/12 02:22:19;;;;;;;5.30;4.10;;;27.40;63.60;;;;;;5090270;28;20425;-50
2023/09/12 02:25:08;;;;;;;3.77;3.47;;;27.40;63.70;;;;;;5094316;28;20468;-49
2023/09/12 02:27:56;;;;;;;4.33;3.93;;;27.40;63.70;;;;;;5099932;28;20818;-50
2023/09/12 02:30:43;;;;;;;4.47;3.87;;;27.40;63.80;;;;;;5092090;28;20479;-51
2023/09/12 02:33:30;;;;;;;5.00;4.00;;;27.40;63.70;;;;;;5099362;28;20440;-50
2023/09/12 02:36:18;;;;;;;4.17;3.87;;;27.40;63.60;;;;;;5091042;28;20992;-51
2023/09/12 02:39:06;;;;;;;3.80;3.50;;;27.40;64.00;;;;;;5097628;28;20570;-51
2023/09/12 02:41:54;;;;;;;4.33;4.03;;;27.40;63.80;;;;;;5107618;28;20890;-50
2023/09/12 02:44:44;;;;;;;4.30;4.00;;;27.40;63.60;;;;;;5097890;28;20483;-49
2023/09/12 02:47:31;;;;;;;3.50;3.20;;;27.30;63.70;;;;;;5095651;28;20436;-49
2023/09/12 02:50:18;;;;;;;3.23;3.03;;;27.40;64.10;;;;;;5095340;28;20548;-50
2023/09/12 02:53:07;;;;;;;3.90;3.50;;;27.30;64.40;;;;;;5101224;28;20549;-50
2023/09/12 02:55:54;;;;;;;4.30;4.00;;;27.40;64.40;;;;;;5100751;28;20999;-49
2023/09/12 02:58:41;;;;;;;3.97;3.60;;;27.30;64.10;;;;;;5099979;28;20444;-50
2023/09/12 03:01:29;;;;;;;3.77;3.47;;;27.40;64.00;;;;;;5095185;28;20906;-49
2023/09/12 03:04:16;;;;;;;4.80;4.33;;;27.30;63.80;;;;;;5092231;28;20589;-50
2023/09/12 03:07:04;;;;;;;4.37;4.07;;;27.30;63.70;;;;;;5094015;28;20798;-49
2023/09/12 03:09:53;;;;;;;5.43;4.37;;;27.30;63.70;;;;;;5095423;28;20484;-51
2023/09/12 03:12:40;;;;;;;4.47;4.10;;;27.30;63.80;;;;;;5110925;27;20424;-49
2023/09/12 03:15:28;;;;;;;5.63;5.17;;;27.30;63.70;;;;;;5092336;28;20827;-50
2023/09/12 03:18:15;;;;;;;4.57;4.17;;;27.30;63.60;;;;;;5088260;28;20778;-49
2023/09/12 03:21:03;;;;;;;3.10;2.90;;;27.30;63.70;;;;;;5093518;27;21012;-51
2023/09/12 03:23:50;;;;;;;7.03;4.40;;;27.30;64.00;;;;;;5115787;27;20501;-50
2023/09/12 03:26:39;;;;;;;4.30;3.40;;;27.30;63.80;;;;;;5097766;28;20469;-49
2023/09/12 03:29:25;;;;;;;3.80;3.50;;;27.20;63.80;;;;;;5088126;28;20819;-50
2023/09/12 03:32:13;;;;;;;3.87;3.57;;;27.30;64.10;;;;;;5098869;28;20563;-50
2023/09/12 03:35:01;;;;;;;4.23;3.90;;;27.30;63.90;;;;;;5096616;28;20447;-51
2023/09/12 03:37:48;;;;;;;4.23;3.67;;;27.20;63.70;;;;;;5097021;28;21011;-50
2023/09/12 03:40:36;;;;;;;4.00;3.70;;;27.30;63.80;;;;;;5119189;27;20490;-50
2023/09/12 03:43:24;;;;;;;4.93;4.10;;;27.30;63.90;;;;;;5093855;28;20824;-50
2023/09/12 03:46:11;;;;;;;4.57;4.07;;;27.20;63.80;;;;;;5097442;27;20546;-50
2023/09/12 03:48:58;;;;;;;3.83;3.53;;;27.20;63.90;;;;;;5104277;27;20452;-52
2023/09/12 03:51:46;;;;;;;4.47;3.43;;;27.20;64.00;;;;;;5107298;27;20467;-50
2023/09/12 03:54:33;;;;;;;4.50;4.10;;;27.20;64.00;;;;;;5095826;28;20468;-49
2023/09/12 03:57:21;;;;;;;4.93;4.50;;;27.20;63.90;;;;;;5096308;28;20428;-50
2023/09/12 04:00:11;;;;;;;3.97;3.57;;;27.20;63.90;;;;;;5097302;28;20472;-51
2023/09/12 04:03:03;;;;;;;5.30;4.80;;;27.20;64.10;;;;;;5098581;28;20429;-50
2023/09/12 04:05:51;;;;;;;4.83;4.43;;;27.20;63.80;;;;;;5094613;27;20601;-50
2023/09/12 04:08:38;;;;;;;3.60;3.30;;;27.20;64.00;;;;;;5103100;28;20577;-51
2023/09/12 04:11:28;;;;;;;4.90;4.50;;;27.20;64.10;;;;;;5091166;28;21034;-49
2023/09/12 04:14:32;;;;;;;4.27;3.30;;;27.20;64.20;;;;;;5095556;28;20448;-49
2023/09/12 04:17:21;;;;;;;4.17;3.87;;;27.20;64.30;;;;;;5093259;28;20490;-51
2023/09/12 04:20:12;;;;;;;4.70;4.30;;;27.20;64.60;;;;;;5095757;28;20483;-49
2023/09/12 04:23:03;;;;;;;4.40;3.97;;;27.20;64.40;;;;;;5094174;28;20448;-51
2023/09/12 04:25:51;;;;;;;5.07;4.67;;;27.20;64.40;;;;;;5098034;28;20467;-50
2023/09/12 04:28:38;;;;;;;4.30;3.90;;;27.10;64.20;;;;;;5098423;28;20472;-50
2023/09/12 04:31:26;;;;;;;4.23;3.37;;;27.10;64.20;;;;;;5093058;28;20474;-50
2023/09/12 04:34:15;;;;;;;4.33;4.00;;;27.10;64.40;;;;;;5092526;28;20452;-50
2023/09/12 04:37:02;;;;;;;4.87;4.47;;;27.10;64.40;;;;;;5093153;28;20453;-49
2023/09/12 04:39:50;;;;;;;4.90;4.50;;;27.10;64.40;;;;;;5099734;28;21008;-49
2023/09/12 04:42:37;;;;;;;4.53;4.13;;;27.10;64.50;;;;;;5119430;27;20436;-49
2023/09/12 04:45:25;;;;;;;5.10;4.60;;;27.10;64.40;;;;;;5095277;28;20440;-50
2023/09/12 04:48:12;;;;;;;5.53;4.93;;;27.10;64.50;;;;;;5087566;28;20443;-49
2023/09/12 04:51:01;;;;;;;4.30;4.00;;;27.10;64.50;;;;;;5102638;28;20510;-50
2023/09/12 04:53:51;;;;;;;5.10;4.70;;;27.10;64.60;;;;;;5105563;28;20559;-49
2023/09/12 04:56:39;;;;;;;5.50;4.63;;;27.10;64.50;;;;;;5101069;28;20443;-50
2023/09/12 04:59:26;;;;;;;4.50;4.00;;;27.00;64.70;;;;;;5095582;28;20447;-50
2023/09/12 05:02:15;;;;;;;4.53;4.10;;;27.00;64.70;;;;;;5092088;28;20983;-50
2023/09/12 05:05:03;;;;;;;4.70;4.30;;;27.10;64.80;;;;;;5092298;28;20460;-50
2023/09/12 05:07:52;;;;;;;5.13;4.73;;;27.00;64.90;;;;;;5097382;28;20980;-50
2023/09/12 05:10:40;;;;;;;4.87;4.47;;;27.00;64.90;;;;;;5089493;28;20650;-50
2023/09/12 05:13:28;;;;;;;5.17;4.67;;;27.00;64.90;;;;;;5097238;28;20853;-49
2023/09/12 05:16:15;;;;;;;6.23;5.73;;;27.00;66.20;;;;;;5086976;28;20518;-49
2023/09/12 05:19:03;;;;;;;5.10;4.70;;;27.00;64.90;;;;;;5096324;28;20580;-49
2023/09/12 05:21:51;;;;;;;4.40;4.00;;;27.00;64.80;;;;;;5091805;28;20544;-50
2023/09/12 05:24:40;;;;;;;4.77;4.00;;;27.00;64.90;;;;;;5090096;28;21012;-50
2023/09/12 05:27:28;;;;;;;5.30;4.80;;;27.00;65.00;;;;;;5086711;28;20987;-49
2023/09/12 05:30:16;;;;;;;4.50;4.10;;;27.00;64.90;;;;;;5085600;28;20848;-49
2023/09/12 05:33:06;;;;;;;3.63;3.33;;;27.00;65.00;;;;;;5097654;28;20456;-50
2023/09/12 05:35:55;;;;;;;3.80;3.50;;;26.90;64.90;;;;;;5099886;27;20883;-48
2023/09/12 05:38:43;;;;;;;3.80;3.50;;;26.90;65.00;;;;;;5102275;28;20443;-52
2023/09/12 05:41:33;;;;;;;4.80;4.40;;;27.00;65.20;;;;;;5096785;28;20614;-50
2023/09/12 05:44:21;;;;;;;3.50;3.20;;;27.00;65.20;;;;;;5095241;28;20944;-51
2023/09/12 05:47:08;;;;;;;5.63;4.50;;;26.90;65.20;;;;;;5097459;28;20458;-50
2023/09/12 05:49:56;;;;;;;5.23;4.73;;;26.90;65.20;;;;;;5099319;28;20457;-50
2023/09/12 05:52:44;;;;;;;4.10;3.80;;;26.90;65.20;;;;;;5088865;28;20456;-50
2023/09/12 05:55:33;;;;;;;5.00;4.00;;;26.90;65.30;;;;;;5086877;28;20968;-50
2023/09/12 05:58:22;;;;;;;4.80;4.40;;;26.90;65.20;;;;;;5090165;28;20532;-50
2023/09/12 06:01:14;;;;;;;5.13;4.63;;;26.90;65.30;;;;;;5099107;27;20470;-50
2023/09/12 06:04:02;;;;;;;7.80;4.20;;;26.90;65.30;;;;;;5093172;28;20493;-50
2023/09/12 06:06:50;;;;;;;7.93;4.47;;;26.90;65.50;;;;;;5091788;28;20467;-50
2023/09/12 06:09:37;;;;;;;4.67;4.27;;;26.90;65.50;;;;;;5098414;28;20454;-50
2023/09/12 06:12:24;;;;;;;4.63;4.23;;;26.90;65.50;;;;;;5094758;28;20655;-50
2023/09/12 06:15:14;;;;;;;4.03;3.73;;;26.90;65.50;;;;;;5094157;28;20463;-50
2023/09/12 06:18:02;;;;;;;4.90;4.50;;;26.90;65.60;;;;;;5091668;28;20452;-49
2023/09/12 06:20:52;;;;;;;4.30;3.97;;;26.90;65.60;;;;;;5105964;27;21016;-50
2023/09/12 06:23:39;;;;;;;5.23;4.83;;;26.90;65.60;;;;;;5100821;28;20440;-50
2023/09/12 06:26:27;;;;;;;5.97;5.40;;;26.90;66.90;;;;;;5088365;28;20506;-50
2023/09/12 06:29:15;;;;;;;5.07;4.60;;;26.80;65.60;;;;;;5097811;28;20467;-51
2023/09/12 06:32:04;;;;;;;5.63;5.07;;;26.80;65.60;;;;;;5099854;28;20487;-49
2023/09/12 06:34:51;;;;;;;7.20;6.60;;;26.80;65.60;;;;;;5094111;28;20475;-50
2023/09/12 06:37:40;;;;;;;6.27;5.33;;;26.80;65.60;;;;;;5119049;27;20977;-50
2023/09/12 06:40:26;;;;;;;5.87;5.33;;;26.80;65.60;;;;;;5091704;28;20460;-49
2023/09/12 06:43:14;;;;;;;5.50;5.00;;;26.80;65.70;;;;;;5100558;28;20826;-51
2023/09/12 06:46:01;;;;;;;8.73;5.47;;;26.80;65.70;;;;;;5104850;28;21139;-50
2023/09/12 06:48:50;;;;;;;7.03;6.20;;;26.80;65.60;;;;;;5093857;28;20437;-50
2023/09/12 06:51:37;;;;;;;7.10;6.50;;;26.80;65.60;;;;;;5096905;28;20550;-51
2023/09/12 06:54:24;;;;;;;7.03;6.43;;;26.80;65.60;;;;;;5090470;28;20467;-50
2023/09/12 06:57:12;;;;;;;8.27;6.30;;;26.80;65.70;;;;;;5098423;28;20447;-50
2023/09/12 06:59:59;;;;;;;6.67;5.97;;;26.80;65.70;;;;;;5087992;28;20467;-50
2023/09/12 07:02:46;;;;;;;6.27;5.60;;;26.80;65.60;;;;;;5102099;28;20444;-50
2023/09/12 07:05:38;;;;;;;8.30;7.40;;;26.80;65.70;;;;;;5097666;27;21081;-50
2023/09/12 07:08:25;;;;;;;5.03;4.60;;;26.80;65.70;;;;;;5094505;28;21015;-49
2023/09/12 07:11:15;;;;;;;5.83;5.33;;;26.80;65.80;;;;;;5090277;28;20985;-49
2023/09/12 07:14:03;;;;;;;6.10;5.60;;;26.80;65.70;;;;;;5095627;28;20479;-51
2023/09/12 07:16:51;;;;;;;5.30;4.80;;;26.80;65.60;;;;;;5095262;28;20483;-50
2023/09/12 07:19:38;;;;;;;7.80;7.00;;;26.80;65.60;;;;;;5105674;27;20990;-50
2023/09/12 07:22:27;;;;;;;5.30;4.80;;;26.80;65.70;;;;;;5094560;28;20447;-50
2023/09/12 07:25:15;;;;;;;4.20;3.80;;;26.80;65.70;;;;;;5093032;28;20457;-50
2023/09/12 07:28:03;;;;;;;4.20;3.80;;;26.80;65.70;;;;;;5101410;28;20530;-51
2023/09/12 07:30:50;;;;;;;5.73;5.13;;;26.80;65.70;;;;;;5103502;27;20484;-49
2023/09/12 07:33:37;;;;;;;5.60;4.53;;;26.80;65.80;;;;;;5103276;28;20598;-50
2023/09/12 07:36:25;;;;;;;4.33;4.03;;;26.80;65.80;;;;;;5096240;28;20474;-50
2023/09/12 07:39:13;;;;;;;3.33;3.10;;;26.80;65.80;;;;;;5095009;28;20584;-49
2023/09/12 07:42:00;;;;;;;3.80;3.50;;;26.80;65.80;;;;;;5095382;28;20464;-51
2023/09/12 07:44:48;;;;;;;3.60;3.30;;;26.70;65.80;;;;;;5112198;27;20495;-49
2023/09/12 07:47:35;;;;;;;3.40;3.10;;;26.80;65.80;;;;;;5088958;28;21107;-50
2023/09/12 07:50:22;;;;;;;3.77;3.47;;;26.80;65.90;;;;;;5088878;28;20476;-51
2023/09/12 07:53:10;;;;;;;3.77;3.47;;;26.80;65.90;;;;;;5097400;28;20495;-50
2023/09/12 07:56:01;;;;;;;4.13;3.73;;;26.80;65.90;;;;;;5107506;27;20499;-51
2023/09/12 07:58:52;;;;;;;4.40;4.10;;;26.80;65.90;;;;;;5100786;28;20449;-50
2023/09/12 08:01:39;;;;;;;3.60;3.30;;;26.70;65.70;;;;;;5092694;28;20579;-50
2023/09/12 08:04:26;;;;;;;4.23;3.83;;;26.80;65.80;;;;;;5090030;28;20440;-49
2023/09/12 08:07:13;;;;;;;3.90;3.57;;;26.80;65.80;;;;;;5092611;28;20432;-50
2023/09/12 08:10:00;;;;;;;4.07;3.67;;;26.80;65.80;;;;;;5099941;28;20509;-48
2023/09/12 08:12:49;;;;;;;4.00;3.70;;;26.80;65.80;;;;;;5100854;28;20972;-49
2023/09/12 08:15:36;;;;;;;4.77;3.87;;;26.80;65.80;;;;;;5095824;28;20479;-50
2023/09/12 08:18:30;;;;;;;4.20;3.90;;;26.80;65.80;;;;;;5095794;28;20968;-51
2023/09/12 08:21:18;;;;;;;4.30;3.90;;;26.80;65.90;;;;;;5088555;28;20468;-51
2023/09/12 08:24:06;;;;;;;4.97;4.57;;;26.70;65.90;;;;;;5096878;28;20970;-51
2023/09/12 08:26:54;;;;;;;6.70;4.20;;;26.70;65.90;;;;;;5096100;28;20463;-51
2023/09/12 08:29:44;;;;;;;5.00;4.60;;;26.70;65.90;;;;;;5106051;28;20447;-51
2023/09/12 08:32:31;;;;;;;4.60;4.07;;;26.70;65.80;;;;;;5092714;28;20952;-51
2023/09/12 08:35:18;;;;;;;6.73;4.23;;;26.70;65.90;;;;;;5091665;28;21012;-50
2023/09/12 08:38:06;;;;;;;5.07;4.67;;;26.70;66.00;;;;;;5097607;28;20489;-50
2023/09/12 08:40:53;;;;;;;5.13;4.63;;;26.70;66.00;;;;;;5092229;27;20471;-50
2023/09/12 08:43:40;;;;;;;4.30;3.90;;;26.70;66.00;;;;;;5089661;28;20453;-50
2023/09/12 08:46:29;;;;;;;4.90;4.50;;;26.70;66.00;;;;;;5090924;28;20550;-50
2023/09/12 08:49:17;;;;;;;4.03;3.73;;;26.70;66.00;;;;;;5085326;28;20443;-51
2023/09/12 08:52:04;;;;;;;5.03;4.53;;;26.70;66.00;;;;;;5107066;28;20439;-50
2023/09/12 08:54:51;;;;;;;4.70;4.30;;;26.70;66.00;;;;;;5095079;28;20510;-49
2023/09/12 08:57:40;;;;;;;7.20;6.47;;;26.70;66.00;;;;;;5091507;28;20449;-50
2023/09/12 09:00:29;;;;;;;5.67;5.17;;;26.70;66.10;;;;;;5087821;28;20483;-51
2023/09/12 09:03:18;;;;;;;4.50;4.20;;;26.70;66.00;;;;;;5089070;28;20454;-51
2023/09/12 09:06:10;;;;;;;4.80;4.33;;;26.70;66.10;;;;;;5095520;27;20857;-49
2023/09/12 09:08:58;;;;;;;4.90;4.50;;;26.70;66.10;;;;;;5105218;28;20959;-51
2023/09/12 09:11:45;;;;;;;4.93;4.53;;;26.70;66.10;;;;;;5087663;28;20670;-50
2023/09/12 09:14:32;;;;;;;4.53;4.20;;;26.70;66.10;;;;;;5088426;28;20996;-51
2023/09/12 09:17:20;;;;;;;5.43;4.93;;;26.60;66.00;;;;;;5097929;28;20538;-49
2023/09/12 09:20:29;;;;;;;4.93;4.43;;;26.70;66.10;;;;;;5092301;28;20542;-50
2023/09/12 09:23:16;;;;;;;5.30;4.80;;;26.60;66.10;;;;;;5084532;28;20441;-52
2023/09/12 09:26:02;;;;;;;5.00;4.50;;;26.60;66.10;;;;;;5106107;28;20526;-50
2023/09/12 09:29:04;;;;;;;4.93;4.40;;;26.60;66.00;;;;;;5104580;28;20590;-51
2023/09/12 09:31:52;;;;;;;4.80;4.37;;;26.60;66.10;;;;;;5096532;28;20565;-51
2023/09/12 09:34:42;;;;;;;5.17;4.77;;;26.60;66.00;;;;;;5095370;28;21020;-51
2023/09/12 09:37:31;;;;;;;5.40;4.90;;;26.60;66.10;;;;;;5094441;28;20968;-50
2023/09/12 09:40:18;;;;;;;5.20;4.80;;;26.60;66.20;;;;;;5092829;28;20441;-51
2023/09/12 09:43:05;;;;;;;4.97;4.57;;;26.60;66.10;;;;;;5086409;28;20471;-51
2023/09/12 09:45:53;;;;;;;4.97;4.57;;;26.60;66.10;;;;;;5094714;28;20548;-51
2023/09/12 09:48:49;;;;;;;5.50;5.03;;;26.60;66.10;;;;;;5098705;28;20454;-50
2023/09/12 09:51:42;;;;;;;4.73;4.30;;;26.60;66.20;;;;;;5106433;28;20482;-50
2023/09/12 09:54:31;;;;;;;4.93;4.50;;;26.60;66.20;;;;;;5100240;28;20460;-50
2023/09/12 09:57:18;;;;;;;5.30;4.90;;;26.60;66.20;;;;;;5093783;28;20471;-50
2023/09/12 10:00:08;;;;;;;4.63;4.33;;;26.60;67.50;;;;;;5099241;28;20943;-51
2023/09/12 10:03:00;;;;;;;5.00;4.60;;;26.60;66.30;;;;;;5101392;28;20948;-50
2023/09/12 10:05:48;;;;;;;6.30;5.03;;;26.60;66.30;;;;;;5096102;27;20457;-50
2023/09/12 10:08:36;;;;;;;4.90;4.50;;;26.60;66.30;;;;;;5100920;28;20440;-50
2023/09/12 10:11:29;;;;;;;5.63;5.23;;;26.60;66.30;;;;;;5087516;28;20488;-51
2023/09/12 10:14:24;;;;;;;5.97;5.47;;;26.60;66.30;;;;;;5099824;28;20464;-50
2023/09/12 10:17:16;;;;;;;5.37;4.97;;;26.60;66.30;;;;;;5099454;28;20478;-51
2023/09/12 10:20:06;;;;;;;5.33;4.93;;;26.60;66.30;;;;;;5102038;28;20464;-50
2023/09/12 10:23:03;;;;;;;4.57;4.27;;;26.60;66.20;;;;;;5096571;28;20460;-51
2023/09/12 10:25:51;;;;;;;5.03;4.67;;;26.60;66.20;;;;;;5112334;27;20459;-50
2023/09/12 10:28:42;;;;;;;4.33;3.93;;;26.60;66.30;;;;;;5095349;28;20460;-50
2023/09/12 10:31:31;;;;;;;5.20;4.80;;;26.60;66.30;;;;;;5092402;28;20471;-51
2023/09/12 10:34:21;;;;;;;4.93;4.53;;;26.50;66.30;;;;;;5085852;28;20460;-50
2023/09/12 10:37:09;;;;;;;5.00;4.60;;;26.60;66.30;;;;;;5102480;28;20439;-50
2023/09/12 10:39:58;;;;;;;5.63;5.23;;;26.60;66.30;;;;;;5104834;28;20554;-51
2023/09/12 10:42:46;;;;;;;4.13;3.83;;;26.60;66.30;;;;;;5109653;27;20471;-51
2023/09/12 10:45:37;;;;;;;4.83;4.47;;;26.50;66.30;;;;;;5088448;28;20586;-50
2023/09/12 10:48:24;;;;;;;5.00;4.60;;;26.60;66.30;;;;;;5091706;28;20452;-50
2023/09/12 10:51:13;;;;;;;5.47;4.97;;;26.50;66.30;;;;;;5101572;27;20472;-51
2023/09/12 10:54:00;;;;;;;4.80;4.40;;;26.60;66.30;;;;;;5105301;28;20444;-51
2023/09/12 10:56:50;;;;;;;4.67;4.37;;;26.60;66.20;;;;;;5114281;27;20478;-51
2023/09/12 10:59:37;;;;;;;5.40;5.00;;;26.60;66.30;;;;;;5096250;28;20832;-49
2023/09/12 11:02:31;;;;;;;6.13;5.57;;;26.60;66.30;;;;;;5094833;28;20454;-51
2023/09/12 11:05:38;;;;;;;5.90;5.40;;;26.60;66.20;;;;;;5087260;28;20545;-50
2023/09/12 11:08:27;;;;;;;7.00;6.40;;;26.60;66.30;;;;;;5096582;28;20526;-50
2023/09/12 11:11:19;;;;;;;4.93;4.53;;;26.50;66.00;;;;;;5087180;28;20618;-50
2023/09/12 11:14:07;;;;;;;5.00;4.60;;;26.60;66.00;;;;;;5094507;28;20452;-49
2023/09/12 11:17:23;;;;;;;4.37;3.97;;;26.60;66.20;;;;;;5115325;27;20825;-50
2023/09/12 11:20:13;;;;;;;4.47;4.13;;;26.60;66.30;;;;;;5098429;28;20475;-51
2023/09/12 11:23:12;;;;;;;4.80;4.40;;;26.60;66.30;;;;;;5097136;28;20583;-50
2023/09/12 11:26:06;;;;;;;4.77;4.43;;;26.60;66.30;;;;;;5105025;27;20464;-49
2023/09/12 11:28:57;;;;;;;4.40;4.10;;;26.60;66.30;;;;;;5086887;28;20980;-50
2023/09/12 11:31:57;;;;;;;4.57;4.17;;;26.60;66.30;;;;;;5092247;28;20922;-50
2023/09/12 11:34:45;;;;;;;4.60;4.20;;;26.50;66.30;;;;;;5103540;28;20471;-51
2023/09/12 11:37:36;;;;;;;3.87;3.57;;;26.60;66.30;;;;;;5099290;28;20792;-50
2023/09/12 11:40:26;;;;;;;4.50;3.87;;;26.50;66.30;;;;;;5086728;28;20488;-50
2023/09/12 11:43:22;;;;;;;4.83;4.40;;;26.50;66.30;;;;;;5098084;28;21015;-49
2023/09/12 11:46:10;;;;;;;4.37;3.97;;;26.60;66.30;;;;;;5108628;27;20460;-49
2023/09/12 11:48:57;;;;;;;5.00;4.60;;;26.50;66.30;;;;;;5090650;28;20697;-49
2023/09/12 11:51:49;;;;;;;5.63;5.13;;;26.50;66.40;;;;;;5099563;28;20479;-51
2023/09/12 11:54:38;;;;;;;5.90;5.30;;;26.50;66.40;;;;;;5093218;28;20448;-50
2023/09/12 11:57:26;;;;;;;4.97;4.57;;;26.50;66.40;;;;;;5085051;28;20464;-49
2023/09/12 12:00:19;;;;;;;4.30;4.00;;;26.50;66.40;;;;;;5098532;28;20582;-49
2023/09/12 12:03:07;;;;;;;5.80;5.30;;;26.50;66.50;;;;;;5093114;28;20446;-49
2023/09/12 12:05:55;;;;;;;6.27;4.93;;;26.50;66.40;;;;;;5089084;28;20472;-51
2023/09/12 12:08:43;;;;;;;4.50;4.10;;;26.50;66.40;;;;;;5103937;28;20804;-50
2023/09/12 12:11:32;;;;;;;4.67;4.27;;;26.50;66.40;;;;;;5091345;28;20540;-49
2023/09/12 12:14:19;;;;;;;4.97;4.57;;;26.50;66.40;;;;;;5092962;28;20534;-50
2023/09/12 12:17:08;;;;;;;4.67;4.20;;;26.60;66.40;;;;;;5092269;28;20507;-51
2023/09/12 12:19:56;;;;;;;4.43;4.03;;;26.50;66.50;;;;;;5095059;28;20480;-50
2023/09/12 12:22:43;;;;;;;7.50;4.40;;;26.50;66.40;;;;;;5098639;28;20456;-51
2023/09/12 12:25:34;;;;;;;7.40;6.43;;;26.50;66.50;;;;;;5086390;27;20813;-51
2023/09/12 12:28:26;;;;;;;4.37;4.07;;;26.50;66.20;;;;;;5089038;28;20262;-50
2023/09/12 12:31:13;;;;;;;6.13;5.50;;;26.50;66.40;;;;;;5093257;27;20590;-52
2023/09/12 12:34:00;;;;;;;4.53;4.13;;;26.50;66.60;;;;;;5092481;28;20534;-50
2023/09/12 12:37:07;;;;;;;5.43;4.97;;;26.50;66.50;;;;;;5092659;28;20482;-51
2023/09/12 12:39:55;;;;;;;4.80;4.40;;;26.50;66.30;;;;;;5108077;27;20501;-50
2023/09/12 12:42:46;;;;;;;5.20;4.80;;;26.50;66.30;;;;;;5097038;28;21076;-50
2023/09/12 12:45:53;;;;;;;5.30;4.90;;;26.50;66.40;;;;;;5098736;28;20606;-51
2023/09/12 12:48:45;;;;;;;5.60;5.10;;;26.50;66.40;;;;;;5092971;28;20452;-49
2023/09/12 12:51:36;;;;;;;5.63;5.23;;;26.50;66.30;;;;;;5095880;28;20468;-50
2023/09/12 12:54:23;;;;;;;5.20;4.70;;;26.50;65.90;;;;;;5088677;28;20494;-52
2023/09/12 12:57:12;;;;;;;5.20;4.77;;;26.50;65.80;;;;;;5099572;28;20556;-50
2023/09/12 13:00:00;;;;;;;4.73;4.40;;;26.50;65.90;;;;;;5109021;27;20459;-50
2023/09/12 13:02:49;;;;;;;5.27;4.87;;;26.50;66.10;;;;;;5116759;27;20431;-52
2023/09/12 13:05:37;;;;;;;5.50;5.10;;;26.50;66.20;;;;;;5090370;28;20452;-50
2023/09/12 13:08:25;;;;;;;5.17;4.77;;;26.50;66.20;;;;;;5087874;28;20948;-51
2023/09/12 13:11:13;;;;;;;4.97;4.57;;;26.50;66.20;;;;;;5091587;28;20484;-50
2023/09/12 13:14:09;;;;;;;5.70;5.20;;;26.50;66.10;;;;;;5101227;28;20448;-51
2023/09/12 13:16:56;;;;;;;4.83;4.50;;;26.50;66.20;;;;;;5099491;28;20598;-50
2023/09/12 13:19:45;;;;;;;4.90;4.50;;;26.50;66.10;;;;;;5095497;28;20473;-50
2023/09/12 13:22:32;;;;;;;5.33;4.47;;;26.50;66.20;;;;;;5093222;28;20968;-49
2023/09/12 13:25:21;;;;;;;5.83;5.33;;;26.50;66.40;;;;;;5088320;28;20726;-50
2023/09/12 13:28:08;;;;;;;4.30;4.00;;;26.50;66.00;;;;;;5101344;28;20443;-49
2023/09/12 13:30:55;;;;;;;5.13;4.73;;;26.60;66.20;;;;;;5090131;28;20849;-51
2023/09/12 13:33:42;;;;;;;4.87;4.53;;;26.60;66.20;;;;;;5106423;28;20435;-51
2023/09/12 13:36:31;;;;;;;5.00;4.60;;;26.60;66.30;;;;;;5091094;28;20676;-50
2023/09/12 13:39:18;;;;;;;5.13;4.73;;;26.60;66.10;;;;;;5084109;28;20916;-51
2023/09/12 13:42:08;;;;;;;5.20;4.80;;;26.50;65.90;;;;;;5088711;28;20460;-50
2023/09/12 13:44:55;;;;;;;4.90;4.40;;;26.50;65.70;;;;;;5091445;28;20601;-49
2023/09/12 13:47:42;;;;;;;5.17;4.77;;;26.50;66.00;;;;;;5097440;28;20464;-50
2023/09/12 13:50:30;;;;;;;4.40;4.10;;;26.50;65.80;;;;;;5093510;28;20525;-50
2023/09/12 13:53:18;;;;;;;5.00;4.60;;;26.50;65.60;;;;;;5080090;28;20583;-49
2023/09/12 13:56:06;;;;;;;5.30;4.90;;;26.50;65.80;;;;;;5090135;28;20484;-51
2023/09/12 13:58:56;;;;;;;4.80;4.40;;;26.50;65.90;;;;;;5106395;28;20542;-51
2023/09/12 14:01:43;;;;;;;4.60;4.20;;;26.50;66.00;;;;;;5092445;28;20805;-50
2023/09/12 14:04:30;;;;;;;9.17;4.77;;;26.50;66.00;;;;;;5102223;28;20436;-51
2023/09/12 14:07:18;;;;;;;8.33;5.23;;;26.60;65.80;;;;;;5089881;28;20443;-49
2023/09/12 14:10:08;;;;;;;7.13;5.23;;;26.60;65.60;;;;;;5087072;28;20541;-49
2023/09/12 14:12:58;;;;;;;8.00;5.50;;;26.50;65.80;;;;;;5093327;28;20471;-50
2023/09/12 14:16:00;;;;;;;6.03;5.43;;;26.40;65.10;;;;;;5093613;28;21111;-49
2023/09/12 14:18:48;;;;;;;5.60;5.10;;;26.40;65.30;;;;;;5090240;28;20441;-49
2023/09/12 14:21:37;;;;;;;6.03;5.43;;;26.40;65.70;;;;;;5090804;28;21075;-51
2023/09/12 14:24:24;;;;;;;6.47;5.30;;;26.40;65.70;;;;;;5096234;28;20609;-51
2023/09/12 14:27:13;;;;;;;5.90;5.33;;;26.40;65.60;;;;;;5116186;27;20456;-49
2023/09/12 14:30:14;;;;;;;5.50;5.00;;;26.40;65.70;;;;;;5089746;28;20985;-50
2023/09/12 14:33:01;;;;;;;6.23;5.73;;;26.40;65.60;;;;;;5100429;28;20523;-50
2023/09/12 14:35:48;;;;;;;5.87;5.37;;;26.50;65.70;;;;;;5112090;27;20456;-50
2023/09/12 14:38:35;;;;;;;5.90;5.40;;;26.50;65.70;;;;;;5095136;28;20543;-50
2023/09/12 14:41:22;;;;;;;5.00;4.50;;;26.50;65.70;;;;;;5091399;28;20594;-50